sensor_id;sensor_type;location;lat;lon;timestamp;P1;durP1;ratioP1;P2;durP2;ratioP2
26562;SDS011;14217;50.986;5.826;2023-07-08T00:00:56;1.25;;;1.15;;
26562;SDS011;14217;50.986;5.826;2023-07-08T00:05:59;2.42;;;1.30;;
26562;SDS011;14217;50.986;5.826;2023-07-08T00:11:01;2.15;;;1.80;;
26562;SDS011;14217;50.986;5.826;2023-07-08T00:16:03;1.30;;;1.13;;
26562;SDS011;14217;50.986;5.826;2023-07-08T00:21:15;3.30;;;1.60;;
26562;SDS011;14217;50.986;5.826;2023-07-08T00:26:19;2.80;;;1.67;;
26562;SDS011;14217;50.986;5.826;2023-07-08T00:31:24;2.50;;;1.40;;
26562;SDS011;14217;50.986;5.826;2023-07-08T00:36:27;1.40;;;1.08;;
26562;SDS011;14217;50.986;5.826;2023-07-08T00:41:31;2.13;;;1.40;;
26562;SDS011;14217;50.986;5.826;2023-07-08T00:46:46;1.60;;;1.35;;
26562;SDS011;14217;50.986;5.826;2023-07-08T00:52:19;1.65;;;1.30;;
26562;SDS011;14217;50.986;5.826;2023-07-08T00:57:22;1.83;;;1.55;;
26562;SDS011;14217;50.986;5.826;2023-07-08T01:02:27;2.45;;;1.50;;
26562;SDS011;14217;50.986;5.826;2023-07-08T01:07:29;2.10;;;1.48;;
26562;SDS011;14217;50.986;5.826;2023-07-08T01:12:35;1.55;;;1.40;;
26562;SDS011;14217;50.986;5.826;2023-07-08T01:17:42;1.60;;;1.50;;
26562;SDS011;14217;50.986;5.826;2023-07-08T01:22:45;1.40;;;1.23;;
26562;SDS011;14217;50.986;5.826;2023-07-08T01:27:49;1.52;;;1.23;;
26562;SDS011;14217;50.986;5.826;2023-07-08T01:32:57;1.23;;;1.13;;
26562;SDS011;14217;50.986;5.826;2023-07-08T01:38:05;2.17;;;1.65;;
26562;SDS011;14217;50.986;5.826;2023-07-08T01:43:10;2.65;;;1.40;;
26562;SDS011;14217;50.986;5.826;2023-07-08T01:48:14;1.92;;;1.40;;
26562;SDS011;14217;50.986;5.826;2023-07-08T01:53:20;1.90;;;1.42;;
26562;SDS011;14217;50.986;5.826;2023-07-08T01:58:24;1.35;;;1.02;;
26562;SDS011;14217;50.986;5.826;2023-07-08T02:03:27;1.63;;;1.45;;
26562;SDS011;14217;50.986;5.826;2023-07-08T02:08:29;2.53;;;1.42;;
26562;SDS011;14217;50.986;5.826;2023-07-08T02:13:31;2.03;;;1.35;;
26562;SDS011;14217;50.986;5.826;2023-07-08T02:18:33;1.70;;;1.55;;
26562;SDS011;14217;50.986;5.826;2023-07-08T02:23:35;1.88;;;1.23;;
26562;SDS011;14217;50.986;5.826;2023-07-08T02:28:37;1.52;;;1.42;;
26562;SDS011;14217;50.986;5.826;2023-07-08T02:33:39;2.28;;;1.20;;
26562;SDS011;14217;50.986;5.826;2023-07-08T02:38:41;1.42;;;1.13;;
26562;SDS011;14217;50.986;5.826;2023-07-08T02:43:43;1.50;;;1.20;;
26562;SDS011;14217;50.986;5.826;2023-07-08T02:48:45;2.05;;;1.30;;
26562;SDS011;14217;50.986;5.826;2023-07-08T02:53:48;1.52;;;1.20;;
26562;SDS011;14217;50.986;5.826;2023-07-08T02:58:51;1.92;;;1.30;;
26562;SDS011;14217;50.986;5.826;2023-07-08T03:03:53;1.30;;;1.20;;
26562;SDS011;14217;50.986;5.826;2023-07-08T03:08:59;2.05;;;1.40;;
26562;SDS011;14217;50.986;5.826;2023-07-08T03:14:02;2.30;;;1.50;;
26562;SDS011;14217;50.986;5.826;2023-07-08T03:19:04;0.98;;;0.93;;
26562;SDS011;14217;50.986;5.826;2023-07-08T03:24:09;1.15;;;0.93;;
26562;SDS011;14217;50.986;5.826;2023-07-08T03:29:16;1.58;;;1.48;;
26562;SDS011;14217;50.986;5.826;2023-07-08T03:34:19;1.40;;;1.30;;
26562;SDS011;14217;50.986;5.826;2023-07-08T03:39:22;1.58;;;1.40;;
26562;SDS011;14217;50.986;5.826;2023-07-08T03:44:25;2.75;;;1.30;;
26562;SDS011;14217;50.986;5.826;2023-07-08T03:49:27;1.50;;;1.40;;
26562;SDS011;14217;50.986;5.826;2023-07-08T03:54:29;1.85;;;1.60;;
26562;SDS011;14217;50.986;5.826;2023-07-08T03:59:31;1.98;;;1.67;;
26562;SDS011;14217;50.986;5.826;2023-07-08T04:04:33;1.65;;;1.48;;
26562;SDS011;14217;50.986;5.826;2023-07-08T04:09:36;2.08;;;1.50;;
26562;SDS011;14217;50.986;5.826;2023-07-08T04:14:38;1.88;;;1.50;;
26562;SDS011;14217;50.986;5.826;2023-07-08T04:19:44;2.67;;;1.40;;
26562;SDS011;14217;50.986;5.826;2023-07-08T04:24:46;1.90;;;1.70;;
26562;SDS011;14217;50.986;5.826;2023-07-08T04:29:48;1.90;;;1.67;;
26562;SDS011;14217;50.986;5.826;2023-07-08T04:34:51;1.70;;;1.60;;
26562;SDS011;14217;50.986;5.826;2023-07-08T04:39:54;1.95;;;1.75;;
26562;SDS011;14217;50.986;5.826;2023-07-08T04:44:56;1.92;;;1.73;;
26562;SDS011;14217;50.986;5.826;2023-07-08T04:49:58;2.25;;;1.65;;
26562;SDS011;14217;50.986;5.826;2023-07-08T04:54:59;2.05;;;1.48;;
26562;SDS011;14217;50.986;5.826;2023-07-08T05:00:02;1.60;;;1.45;;
26562;SDS011;14217;50.986;5.826;2023-07-08T05:05:04;1.75;;;1.65;;
26562;SDS011;14217;50.986;5.826;2023-07-08T05:10:06;2.20;;;1.90;;
26562;SDS011;14217;50.986;5.826;2023-07-08T05:15:08;2.60;;;1.75;;
26562;SDS011;14217;50.986;5.826;2023-07-08T05:20:12;1.77;;;1.27;;
26562;SDS011;14217;50.986;5.826;2023-07-08T05:25:17;2.45;;;1.80;;
26562;SDS011;14217;50.986;5.826;2023-07-08T05:30:20;1.50;;;1.40;;
26562;SDS011;14217;50.986;5.826;2023-07-08T05:35:22;1.77;;;1.48;;
26562;SDS011;14217;50.986;5.826;2023-07-08T05:40:26;2.05;;;1.85;;
26562;SDS011;14217;50.986;5.826;2023-07-08T05:45:28;1.73;;;1.55;;
26562;SDS011;14217;50.986;5.826;2023-07-08T05:50:30;1.98;;;1.50;;
26562;SDS011;14217;50.986;5.826;2023-07-08T05:55:32;2.17;;;1.38;;
26562;SDS011;14217;50.986;5.826;2023-07-08T06:00:34;1.88;;;1.50;;
26562;SDS011;14217;50.986;5.826;2023-07-08T06:05:39;1.70;;;1.35;;
26562;SDS011;14217;50.986;5.826;2023-07-08T06:10:42;2.92;;;1.90;;
26562;SDS011;14217;50.986;5.826;2023-07-08T06:15:46;2.20;;;1.90;;
26562;SDS011;14217;50.986;5.826;2023-07-08T06:20:51;2.20;;;1.65;;
26562;SDS011;14217;50.986;5.826;2023-07-08T06:25:57;7.18;;;2.13;;
26562;SDS011;14217;50.986;5.826;2023-07-08T06:30:59;2.15;;;1.95;;
26562;SDS011;14217;50.986;5.826;2023-07-08T06:36:02;1.85;;;1.55;;
26562;SDS011;14217;50.986;5.826;2023-07-08T06:41:04;2.42;;;1.60;;
26562;SDS011;14217;50.986;5.826;2023-07-08T06:46:06;3.67;;;2.05;;
26562;SDS011;14217;50.986;5.826;2023-07-08T06:51:08;3.40;;;2.13;;
26562;SDS011;14217;50.986;5.826;2023-07-08T06:56:10;2.47;;;1.77;;
26562;SDS011;14217;50.986;5.826;2023-07-08T07:01:12;1.98;;;1.77;;
26562;SDS011;14217;50.986;5.826;2023-07-08T07:06:14;2.38;;;1.75;;
26562;SDS011;14217;50.986;5.826;2023-07-08T07:11:16;2.20;;;1.98;;
26562;SDS011;14217;50.986;5.826;2023-07-08T07:16:18;1.98;;;1.70;;
26562;SDS011;14217;50.986;5.826;2023-07-08T07:21:20;2.15;;;1.67;;
26562;SDS011;14217;50.986;5.826;2023-07-08T07:26:22;2.03;;;1.83;;
26562;SDS011;14217;50.986;5.826;2023-07-08T07:31:24;2.75;;;1.98;;
26562;SDS011;14217;50.986;5.826;2023-07-08T07:36:27;8.65;;;5.00;;
26562;SDS011;14217;50.986;5.826;2023-07-08T07:41:30;5.05;;;4.00;;
26562;SDS011;14217;50.986;5.826;2023-07-08T07:46:32;16.67;;;3.63;;
26562;SDS011;14217;50.986;5.826;2023-07-08T07:51:34;5.25;;;3.50;;
26562;SDS011;14217;50.986;5.826;2023-07-08T07:56:36;6.35;;;4.40;;
26562;SDS011;14217;50.986;5.826;2023-07-08T08:01:38;4.65;;;3.67;;
26562;SDS011;14217;50.986;5.826;2023-07-08T08:06:42;9.90;;;4.97;;
26562;SDS011;14217;50.986;5.826;2023-07-08T08:11:44;4.78;;;3.65;;
26562;SDS011;14217;50.986;5.826;2023-07-08T08:16:46;7.03;;;3.72;;
26562;SDS011;14217;50.986;5.826;2023-07-08T08:21:48;16.92;;;4.40;;
26562;SDS011;14217;50.986;5.826;2023-07-08T08:26:51;12.75;;;4.75;;
26562;SDS011;14217;50.986;5.826;2023-07-08T08:31:53;8.77;;;5.28;;
26562;SDS011;14217;50.986;5.826;2023-07-08T08:36:56;8.40;;;3.47;;
26562;SDS011;14217;50.986;5.826;2023-07-08T08:41:57;9.93;;;4.53;;
26562;SDS011;14217;50.986;5.826;2023-07-08T08:52:32;8.80;;;4.30;;
26562;SDS011;14217;50.986;5.826;2023-07-08T08:57:40;4.45;;;3.95;;
26562;SDS011;14217;50.986;5.826;2023-07-08T09:02:53;4.95;;;4.40;;
26562;SDS011;14217;50.986;5.826;2023-07-08T09:13:07;5.75;;;3.70;;
26562;SDS011;14217;50.986;5.826;2023-07-08T09:18:20;4.25;;;3.75;;
26562;SDS011;14217;50.986;5.826;2023-07-08T09:23:31;13.32;;;3.80;;
26562;SDS011;14217;50.986;5.826;2023-07-08T09:28:39;5.18;;;4.32;;
26562;SDS011;14217;50.986;5.826;2023-07-08T09:33:45;4.32;;;3.92;;
26562;SDS011;14217;50.986;5.826;2023-07-08T09:38:47;4.75;;;3.35;;
26562;SDS011;14217;50.986;5.826;2023-07-08T09:43:51;5.80;;;3.88;;
26562;SDS011;14217;50.986;5.826;2023-07-08T09:54:25;7.95;;;5.18;;
26562;SDS011;14217;50.986;5.826;2023-07-08T09:59:29;18.63;;;3.95;;
26562;SDS011;14217;50.986;5.826;2023-07-08T10:04:33;7.25;;;4.63;;
26562;SDS011;14217;50.986;5.826;2023-07-08T10:09:35;5.78;;;4.60;;
26562;SDS011;14217;50.986;5.826;2023-07-08T10:14:48;5.88;;;3.70;;
26562;SDS011;14217;50.986;5.826;2023-07-08T10:19:54;3.85;;;3.50;;
26562;SDS011;14217;50.986;5.826;2023-07-08T10:30:25;8.40;;;4.32;;
26562;SDS011;14217;50.986;5.826;2023-07-08T10:35:32;3.85;;;3.38;;
26562;SDS011;14217;50.986;5.826;2023-07-08T10:40:49;3.83;;;3.53;;
26562;SDS011;14217;50.986;5.826;2023-07-08T10:51:11;3.65;;;3.13;;
26562;SDS011;14217;50.986;5.826;2023-07-08T10:56:30;5.00;;;3.63;;
26562;SDS011;14217;50.986;5.826;2023-07-08T11:01:56;4.13;;;3.70;;
26562;SDS011;14217;50.986;5.826;2023-07-08T11:12:15;3.47;;;2.67;;
26562;SDS011;14217;50.986;5.826;2023-07-08T11:17:27;4.50;;;3.20;;
26562;SDS011;14217;50.986;5.826;2023-07-08T11:22:35;5.80;;;2.88;;
26562;SDS011;14217;50.986;5.826;2023-07-08T11:27:44;5.53;;;2.80;;
26562;SDS011;14217;50.986;5.826;2023-07-08T11:32:51;6.25;;;3.17;;
26562;SDS011;14217;50.986;5.826;2023-07-08T11:37:59;6.72;;;3.55;;
26562;SDS011;14217;50.986;5.826;2023-07-08T11:43:04;3.08;;;2.83;;
26562;SDS011;14217;50.986;5.826;2023-07-08T11:48:12;9.15;;;3.78;;
26562;SDS011;14217;50.986;5.826;2023-07-08T12:03:59;4.07;;;3.55;;
26562;SDS011;14217;50.986;5.826;2023-07-08T12:14:40;5.78;;;3.60;;
26562;SDS011;14217;50.986;5.826;2023-07-08T12:19:43;7.22;;;3.67;;
26562;SDS011;14217;50.986;5.826;2023-07-08T12:24:46;6.47;;;3.33;;
26562;SDS011;14217;50.986;5.826;2023-07-08T12:29:48;8.57;;;3.42;;
26562;SDS011;14217;50.986;5.826;2023-07-08T12:34:50;3.75;;;3.35;;
26562;SDS011;14217;50.986;5.826;2023-07-08T12:39:54;6.85;;;3.25;;
26562;SDS011;14217;50.986;5.826;2023-07-08T12:44:57;4.18;;;2.40;;
26562;SDS011;14217;50.986;5.826;2023-07-08T12:49:59;8.77;;;3.50;;
26562;SDS011;14217;50.986;5.826;2023-07-08T12:55:02;6.28;;;2.83;;
26562;SDS011;14217;50.986;5.826;2023-07-08T13:00:04;14.68;;;3.15;;
26562;SDS011;14217;50.986;5.826;2023-07-08T13:05:07;5.90;;;3.05;;
26562;SDS011;14217;50.986;5.826;2023-07-08T13:10:20;6.50;;;3.28;;
26562;SDS011;14217;50.986;5.826;2023-07-08T13:15:27;5.38;;;2.78;;
26562;SDS011;14217;50.986;5.826;2023-07-08T13:20:34;4.65;;;2.92;;
26562;SDS011;14217;50.986;5.826;2023-07-08T13:25:37;5.10;;;3.42;;
26562;SDS011;14217;50.986;5.826;2023-07-08T13:30:40;5.22;;;3.42;;
26562;SDS011;14217;50.986;5.826;2023-07-08T13:35:51;5.88;;;3.38;;
26562;SDS011;14217;50.986;5.826;2023-07-08T13:40:55;3.20;;;2.90;;
26562;SDS011;14217;50.986;5.826;2023-07-08T13:46:00;4.15;;;2.72;;
26562;SDS011;14217;50.986;5.826;2023-07-08T13:51:06;7.50;;;2.80;;
26562;SDS011;14217;50.986;5.826;2023-07-08T14:01:20;5.97;;;2.97;;
26562;SDS011;14217;50.986;5.826;2023-07-08T14:06:25;3.95;;;3.10;;
26562;SDS011;14217;50.986;5.826;2023-07-08T14:11:30;6.55;;;2.75;;
26562;SDS011;14217;50.986;5.826;2023-07-08T14:16:33;4.47;;;2.35;;
26562;SDS011;14217;50.986;5.826;2023-07-08T14:21:36;9.60;;;2.38;;
26562;SDS011;14217;50.986;5.826;2023-07-08T14:26:48;5.78;;;3.45;;
26562;SDS011;14217;50.986;5.826;2023-07-08T14:31:49;6.47;;;3.20;;
26562;SDS011;14217;50.986;5.826;2023-07-08T14:36:52;7.07;;;3.10;;
26562;SDS011;14217;50.986;5.826;2023-07-08T14:41:54;2.85;;;2.10;;
26562;SDS011;14217;50.986;5.826;2023-07-08T14:46:56;5.68;;;2.70;;
26562;SDS011;14217;50.986;5.826;2023-07-08T14:51:59;3.60;;;2.28;;
26562;SDS011;14217;50.986;5.826;2023-07-08T14:57:01;3.63;;;2.35;;
26562;SDS011;14217;50.986;5.826;2023-07-08T15:02:14;3.72;;;2.50;;
26562;SDS011;14217;50.986;5.826;2023-07-08T15:07:20;12.50;;;2.63;;
26562;SDS011;14217;50.986;5.826;2023-07-08T15:12:22;3.78;;;2.72;;
26562;SDS011;14217;50.986;5.826;2023-07-08T15:17:24;4.78;;;2.78;;
26562;SDS011;14217;50.986;5.826;2023-07-08T15:22:26;4.15;;;2.30;;
26562;SDS011;14217;50.986;5.826;2023-07-08T15:27:28;4.70;;;3.03;;
26562;SDS011;14217;50.986;5.826;2023-07-08T15:32:30;4.20;;;2.85;;
26562;SDS011;14217;50.986;5.826;2023-07-08T15:37:35;4.95;;;3.13;;
26562;SDS011;14217;50.986;5.826;2023-07-08T15:42:37;5.15;;;3.33;;
26562;SDS011;14217;50.986;5.826;2023-07-08T15:47:40;3.58;;;1.90;;
26562;SDS011;14217;50.986;5.826;2023-07-08T15:52:42;5.18;;;3.03;;
26562;SDS011;14217;50.986;5.826;2023-07-08T15:57:48;3.42;;;3.13;;
26562;SDS011;14217;50.986;5.826;2023-07-08T16:02:54;8.85;;;3.65;;
26562;SDS011;14217;50.986;5.826;2023-07-08T16:08:01;4.53;;;3.80;;
26562;SDS011;14217;50.986;5.826;2023-07-08T16:13:04;3.28;;;2.80;;
26562;SDS011;14217;50.986;5.826;2023-07-08T16:18:08;5.82;;;3.83;;
26562;SDS011;14217;50.986;5.826;2023-07-08T16:23:12;4.75;;;4.20;;
26562;SDS011;14217;50.986;5.826;2023-07-08T16:33:30;6.53;;;3.95;;
26562;SDS011;14217;50.986;5.826;2023-07-08T16:38:32;4.53;;;3.88;;
26562;SDS011;14217;50.986;5.826;2023-07-08T16:43:34;4.60;;;3.38;;
26562;SDS011;14217;50.986;5.826;2023-07-08T16:48:36;3.65;;;3.30;;
26562;SDS011;14217;50.986;5.826;2023-07-08T16:53:39;4.97;;;3.55;;
26562;SDS011;14217;50.986;5.826;2023-07-08T16:58:42;3.05;;;2.75;;
26562;SDS011;14217;50.986;5.826;2023-07-08T17:03:44;4.53;;;3.60;;
26562;SDS011;14217;50.986;5.826;2023-07-08T17:08:46;3.88;;;3.42;;
26562;SDS011;14217;50.986;5.826;2023-07-08T17:13:48;3.53;;;3.22;;
26562;SDS011;14217;50.986;5.826;2023-07-08T17:18:51;3.83;;;3.25;;
26562;SDS011;14217;50.986;5.826;2023-07-08T17:23:56;4.05;;;3.33;;
26562;SDS011;14217;50.986;5.826;2023-07-08T17:28:59;3.38;;;2.53;;
26562;SDS011;14217;50.986;5.826;2023-07-08T17:34:02;3.17;;;2.88;;
26562;SDS011;14217;50.986;5.826;2023-07-08T17:39:04;3.83;;;2.88;;
26562;SDS011;14217;50.986;5.826;2023-07-08T17:44:06;5.30;;;2.78;;
26562;SDS011;14217;50.986;5.826;2023-07-08T17:49:10;3.30;;;3.00;;
26562;SDS011;14217;50.986;5.826;2023-07-08T17:54:13;3.53;;;2.80;;
26562;SDS011;14217;50.986;5.826;2023-07-08T17:59:19;3.20;;;2.90;;
26562;SDS011;14217;50.986;5.826;2023-07-08T18:04:22;6.10;;;3.10;;
26562;SDS011;14217;50.986;5.826;2023-07-08T18:09:27;3.30;;;2.78;;
26562;SDS011;14217;50.986;5.826;2023-07-08T18:14:29;3.67;;;3.00;;
26562;SDS011;14217;50.986;5.826;2023-07-08T18:19:31;3.17;;;2.58;;
26562;SDS011;14217;50.986;5.826;2023-07-08T18:24:33;3.53;;;2.67;;
26562;SDS011;14217;50.986;5.826;2023-07-08T18:29:36;7.07;;;3.03;;
26562;SDS011;14217;50.986;5.826;2023-07-08T18:34:38;9.77;;;2.30;;
26562;SDS011;14217;50.986;5.826;2023-07-08T18:39:39;3.20;;;2.42;;
26562;SDS011;14217;50.986;5.826;2023-07-08T18:44:41;4.22;;;2.25;;
26562;SDS011;14217;50.986;5.826;2023-07-08T18:49:43;2.78;;;2.38;;
26562;SDS011;14217;50.986;5.826;2023-07-08T18:54:45;2.35;;;2.08;;
26562;SDS011;14217;50.986;5.826;2023-07-08T18:59:48;3.08;;;2.78;;
26562;SDS011;14217;50.986;5.826;2023-07-08T19:04:50;3.58;;;3.00;;
26562;SDS011;14217;50.986;5.826;2023-07-08T19:09:52;3.63;;;2.55;;
26562;SDS011;14217;50.986;5.826;2023-07-08T19:14:55;3.15;;;2.65;;
26562;SDS011;14217;50.986;5.826;2023-07-08T19:19:57;3.40;;;2.38;;
26562;SDS011;14217;50.986;5.826;2023-07-08T19:24:59;2.45;;;2.25;;
26562;SDS011;14217;50.986;5.826;2023-07-08T19:30:01;2.20;;;2.00;;
26562;SDS011;14217;50.986;5.826;2023-07-08T19:35:04;2.17;;;1.95;;
26562;SDS011;14217;50.986;5.826;2023-07-08T19:40:09;3.28;;;2.88;;
26562;SDS011;14217;50.986;5.826;2023-07-08T19:45:17;3.20;;;2.72;;
26562;SDS011;14217;50.986;5.826;2023-07-08T19:50:30;2.72;;;2.42;;
26562;SDS011;14217;50.986;5.826;2023-07-08T19:55:33;6.63;;;3.90;;
26562;SDS011;14217;50.986;5.826;2023-07-08T20:05:40;4.65;;;3.22;;
26562;SDS011;14217;50.986;5.826;2023-07-08T20:10:42;3.38;;;2.45;;
26562;SDS011;14217;50.986;5.826;2023-07-08T20:15:44;4.90;;;3.25;;
26562;SDS011;14217;50.986;5.826;2023-07-08T20:20:46;8.68;;;3.78;;
26562;SDS011;14217;50.986;5.826;2023-07-08T20:25:49;4.55;;;3.53;;
26562;SDS011;14217;50.986;5.826;2023-07-08T20:30:51;3.50;;;3.03;;
26562;SDS011;14217;50.986;5.826;2023-07-08T20:35:53;4.68;;;3.20;;
26562;SDS011;14217;50.986;5.826;2023-07-08T20:40:55;5.82;;;2.70;;
26562;SDS011;14217;50.986;5.826;2023-07-08T20:45:57;4.22;;;2.90;;
26562;SDS011;14217;50.986;5.826;2023-07-08T20:51:02;11.15;;;2.60;;
26562;SDS011;14217;50.986;5.826;2023-07-08T20:56:08;3.10;;;2.63;;
26562;SDS011;14217;50.986;5.826;2023-07-08T21:01:17;10.55;;;2.22;;
26562;SDS011;14217;50.986;5.826;2023-07-08T21:06:26;3.42;;;2.10;;
26562;SDS011;14217;50.986;5.826;2023-07-08T21:11:33;4.63;;;2.80;;
26562;SDS011;14217;50.986;5.826;2023-07-08T21:16:35;3.72;;;2.88;;
26562;SDS011;14217;50.986;5.826;2023-07-08T21:21:38;2.38;;;2.17;;
26562;SDS011;14217;50.986;5.826;2023-07-08T21:26:40;2.92;;;2.65;;
26562;SDS011;14217;50.986;5.826;2023-07-08T21:31:44;3.47;;;1.90;;
26562;SDS011;14217;50.986;5.826;2023-07-08T21:36:46;2.75;;;2.03;;
26562;SDS011;14217;50.986;5.826;2023-07-08T21:41:49;3.33;;;2.20;;
26562;SDS011;14217;50.986;5.826;2023-07-08T21:46:51;3.65;;;2.25;;
26562;SDS011;14217;50.986;5.826;2023-07-08T21:51:53;3.85;;;2.28;;
26562;SDS011;14217;50.986;5.826;2023-07-08T21:56:55;3.15;;;2.50;;
26562;SDS011;14217;50.986;5.826;2023-07-08T22:01:57;3.40;;;2.10;;
26562;SDS011;14217;50.986;5.826;2023-07-08T22:06:59;3.28;;;2.13;;
26562;SDS011;14217;50.986;5.826;2023-07-08T22:12:02;3.13;;;1.80;;
26562;SDS011;14217;50.986;5.826;2023-07-08T22:17:06;2.63;;;2.13;;
26562;SDS011;14217;50.986;5.826;2023-07-08T22:22:18;5.03;;;2.08;;
26562;SDS011;14217;50.986;5.826;2023-07-08T22:27:22;3.38;;;2.38;;
26562;SDS011;14217;50.986;5.826;2023-07-08T22:32:24;2.60;;;1.77;;
26562;SDS011;14217;50.986;5.826;2023-07-08T22:37:26;3.38;;;2.28;;
26562;SDS011;14217;50.986;5.826;2023-07-08T22:42:28;2.55;;;1.85;;
26562;SDS011;14217;50.986;5.826;2023-07-08T22:47:30;2.85;;;1.83;;
26562;SDS011;14217;50.986;5.826;2023-07-08T22:52:32;2.33;;;1.92;;
26562;SDS011;14217;50.986;5.826;2023-07-08T22:57:38;2.28;;;1.88;;
26562;SDS011;14217;50.986;5.826;2023-07-08T23:02:39;3.85;;;2.33;;
26562;SDS011;14217;50.986;5.826;2023-07-08T23:07:41;2.13;;;1.83;;
26562;SDS011;14217;50.986;5.826;2023-07-08T23:12:43;2.08;;;1.77;;
26562;SDS011;14217;50.986;5.826;2023-07-08T23:17:46;2.28;;;2.05;;
26562;SDS011;14217;50.986;5.826;2023-07-08T23:22:48;2.10;;;1.90;;
26562;SDS011;14217;50.986;5.826;2023-07-08T23:27:50;2.60;;;2.17;;
26562;SDS011;14217;50.986;5.826;2023-07-08T23:32:52;3.22;;;1.80;;
26562;SDS011;14217;50.986;5.826;2023-07-08T23:37:54;3.58;;;1.88;;
26562;SDS011;14217;50.986;5.826;2023-07-08T23:42:58;1.88;;;1.42;;
26562;SDS011;14217;50.986;5.826;2023-07-08T23:48:00;2.03;;;1.58;;
26562;SDS011;14217;50.986;5.826;2023-07-08T23:53:02;2.47;;;1.88;;
26562;SDS011;14217;50.986;5.826;2023-07-08T23:58:04;1.83;;;1.63;;
